Time;durP1;ratioP1;P1;durP2;ratioP2;P2;SDS_P1;SDS_P2;PMS_P1;PMS_P2;Temp;Humidity;BMP_temperature;BMP_pressure;BME280_temperature;BME280_humidity;BME280_pressure;Samples;Min_cycle;Max_cycle;Signal;HPM_P1;HPM_P2
2021/08/14 00:00:04;;;;;;;11.10;7.65;;;;;;;22.23;58.01;98883.28;5102436;28;20034;-72
2021/08/14 00:02:30;;;;;;;13.13;8.55;;;;;;;22.16;57.55;98889.53;5078298;28;20114;-73
2021/08/14 00:04:55;;;;;;;11.43;8.55;;;;;;;22.14;57.87;98891.09;5101457;28;20437;-71
2021/08/14 00:07:21;;;;;;;12.43;8.57;;;;;;;22.19;57.83;98888.03;5100572;28;20429;-72
2021/08/14 00:09:46;;;;;;;11.48;8.30;;;;;;;22.24;57.72;98887.72;5082460;28;20880;-71
2021/08/14 00:12:12;;;;;;;13.73;8.95;;;;;;;22.20;57.92;98881.25;5103418;28;20110;-73
2021/08/14 00:14:37;;;;;;;12.85;8.55;;;;;;;22.18;57.78;98889.19;5110533;28;20468;-72
2021/08/14 00:17:03;;;;;;;12.15;8.15;;;;;;;22.23;57.74;98886.09;5110369;28;20047;-72
2021/08/14 00:19:30;;;;;;;13.30;9.13;;;;;;;22.28;57.77;98885.00;5110453;28;20434;-73
2021/08/14 00:21:56;;;;;;;12.60;8.90;;;;;;;22.31;57.76;98887.88;5107062;28;20027;-72
2021/08/14 00:24:21;;;;;;;12.27;8.13;;;;;;;22.30;57.76;98885.47;5110410;28;20023;-71
2021/08/14 00:26:47;;;;;;;13.38;8.75;;;;;;;22.27;57.79;98886.19;5092132;28;20031;-72
2021/08/14 00:29:12;;;;;;;13.07;8.95;;;;;;;22.27;57.95;98884.19;5110510;28;20055;-73
2021/08/14 00:31:37;;;;;;;13.60;9.38;;;;;;;22.29;57.61;98886.63;5111030;28;20045;-72
2021/08/14 00:34:03;;;;;;;12.63;9.00;;;;;;;22.30;57.48;98888.25;5114283;28;20472;-72
2021/08/14 00:36:28;;;;;;;13.88;9.18;;;;;;;22.28;57.61;98888.59;5096392;28;20119;-72
2021/08/14 00:38:54;;;;;;;17.52;9.73;;;;;;;22.26;57.72;98882.56;5114791;28;20035;-72
2021/08/14 00:41:20;;;;;;;14.90;9.40;;;;;;;22.24;57.64;98878.53;5115194;28;20031;-72
2021/08/14 00:43:46;;;;;;;12.88;9.40;;;;;;;22.24;57.67;98876.53;5114983;28;20077;-72
2021/08/14 00:46:13;;;;;;;12.75;9.10;;;;;;;22.25;57.66;98877.34;5115250;28;20427;-71
2021/08/14 00:48:38;;;;;;;15.25;8.93;;;;;;;22.22;57.52;98873.28;5115016;28;20024;-71
2021/08/14 00:51:07;;;;;;;11.13;8.50;;;;;;;22.19;57.31;98878.81;5096628;28;20028;-71
2021/08/14 00:53:33;;;;;;;12.32;8.80;;;;;;;22.17;57.75;98873.59;5112548;28;20043;-71
2021/08/14 00:55:59;;;;;;;13.23;9.07;;;;;;;22.15;57.66;98884.34;5114793;28;20507;-71
2021/08/14 00:58:25;;;;;;;13.38;9.13;;;;;;;22.14;57.84;98893.88;5114908;28;20023;-71
2021/08/14 01:00:51;;;;;;;15.95;8.75;;;;;;;22.15;57.50;98895.50;5114536;28;20434;-72
2021/08/14 01:03:16;;;;;;;14.48;10.10;;;;;;;22.16;57.86;98899.91;5114805;28;20089;-71
2021/08/14 01:05:43;;;;;;;15.80;10.10;;;;;;;22.13;57.76;98895.06;5114249;28;20464;-71
2021/08/14 01:08:09;;;;;;;16.65;10.13;;;;;;;22.10;57.91;98887.41;5114650;28;20023;-71
2021/08/14 01:10:34;;;;;;;16.95;10.13;;;;;;;22.08;58.01;98895.34;5114953;28;20038;-71
2021/08/14 01:13:00;;;;;;;15.00;9.30;;;;;;;22.05;58.79;98894.06;5114508;28;20024;-73
2021/08/14 01:15:27;;;;;;;17.80;10.63;;;;;;;22.03;58.87;98887.22;5114458;28;20020;-72
2021/08/14 01:17:53;;;;;;;14.45;10.68;;;;;;;21.99;58.96;98890.75;5096329;28;20031;-72
2021/08/14 01:20:18;;;;;;;15.82;10.02;;;;;;;21.93;59.49;98889.41;5095858;28;20073;-72
2021/08/14 01:22:44;;;;;;;12.95;8.95;;;;;;;21.87;59.97;98879.69;5114505;28;20425;-72
2021/08/14 01:25:10;;;;;;;15.25;10.90;;;;;;;21.79;60.60;98880.69;5114452;28;20024;-72
2021/08/14 01:27:39;;;;;;;17.40;11.10;;;;;;;21.73;60.65;98876.56;5114209;28;20543;-74
2021/08/14 01:30:06;;;;;;;17.20;9.02;;;;;;;21.68;61.36;98872.88;5114121;28;20530;-74
2021/08/14 01:32:34;;;;;;;12.35;6.97;;;;;;;21.60;61.89;98848.69;5114086;28;20030;-80
2021/08/14 01:35:01;;;;;;;11.57;7.97;;;;;;;21.51;62.25;98848.91;5112843;28;20493;-72
2021/08/14 01:37:29;;;;;;;14.70;6.50;;;;;;;21.53;62.39;98846.56;5113809;28;20092;-73
2021/08/14 01:39:54;;;;;;;13.43;6.85;;;;;;;21.59;62.59;98844.28;5113177;28;20062;-73
2021/08/14 01:42:20;;;;;;;8.07;6.28;;;;;;;21.64;62.52;98848.81;5113689;28;20047;-72
2021/08/14 01:44:45;;;;;;;9.45;6.78;;;;;;;21.67;62.88;98848.91;5112180;28;20169;-74
2021/08/14 01:47:11;;;;;;;11.98;7.80;;;;;;;21.62;64.79;98854.75;5113570;28;20023;-73
2021/08/14 01:49:36;;;;;;;12.35;9.10;;;;;;;21.46;64.21;98851.94;5113196;28;20036;-73
2021/08/14 01:52:14;;;;;;;13.43;10.15;;;;;;;21.37;63.87;98854.09;5095186;28;20019;-73
2021/08/14 01:54:40;;;;;;;13.15;10.02;;;;;;;21.36;63.99;98846.91;5093801;28;20027;-73
2021/08/14 01:57:07;;;;;;;15.88;11.30;;;;;;;21.37;63.90;98838.19;5112716;28;20036;-73
2021/08/14 01:59:33;;;;;;;16.63;10.93;;;;;;;21.33;63.94;98845.66;5113196;28;20058;-72
2021/08/14 02:01:59;;;;;;;17.13;11.77;;;;;;;21.32;63.80;98843.22;5113113;28;20008;-73
2021/08/14 02:04:25;;;;;;;18.92;11.98;;;;;;;21.32;63.64;98838.47;5113276;28;20023;-72
2021/08/14 02:06:50;;;;;;;16.73;10.63;;;;;;;21.27;63.82;98835.94;5114131;28;20024;-73
2021/08/14 02:09:15;;;;;;;14.80;11.05;;;;;;;21.10;64.68;98834.28;5095851;28;20027;-73
2021/08/14 02:11:41;;;;;;;16.95;11.77;;;;;;;21.01;64.05;98834.44;5113995;28;20053;-74
2021/08/14 02:14:06;;;;;;;17.73;11.23;;;;;;;21.02;64.22;98841.63;5114172;28;20023;-74
2021/08/14 02:16:33;;;;;;;15.20;11.52;;;;;;;20.97;64.34;98836.34;5114283;28;20106;-74
2021/08/14 02:18:59;;;;;;;14.93;11.23;;;;;;;20.95;64.40;98830.31;5113927;28;20024;-74
2021/08/14 02:21:26;;;;;;;14.65;11.07;;;;;;;20.97;64.65;98837.16;5114175;28;20733;-73
2021/08/14 02:23:52;;;;;;;14.40;11.43;;;;;;;21.00;64.63;98837.59;5109936;28;20035;-75
2021/08/14 02:26:17;;;;;;;17.45;12.25;;;;;;;21.02;64.38;98832.47;5114208;28;20028;-74
2021/08/14 02:28:43;;;;;;;16.17;10.88;;;;;;;21.03;64.18;98829.31;5095707;28;20084;-74
2021/08/14 02:31:08;;;;;;;17.08;11.73;;;;;;;20.97;64.59;98828.78;5114154;28;20019;-73
2021/08/14 02:33:34;;;;;;;13.15;10.52;;;;;;;20.98;64.37;98832.41;5113829;28;20533;-73
2021/08/14 02:36:01;;;;;;;15.45;11.60;;;;;;;20.96;64.53;98832.75;5113973;28;20036;-74
2021/08/14 02:38:26;;;;;;;16.70;11.55;;;;;;;21.00;64.82;98826.44;5113716;28;20028;-74
2021/08/14 02:40:52;;;;;;;15.45;11.32;;;;;;;20.97;64.62;98822.41;5113713;28;20054;-73
2021/08/14 02:43:18;;;;;;;14.77;11.65;;;;;;;20.97;64.43;98826.00;5095441;28;20024;-73
2021/08/14 02:45:44;;;;;;;14.32;11.88;;;;;;;21.00;64.64;98829.25;5113206;28;20055;-74
2021/08/14 02:48:10;;;;;;;21.15;12.80;;;;;;;20.99;64.70;98822.03;5113614;28;20019;-74
2021/08/14 02:50:36;;;;;;;17.80;12.85;;;;;;;20.96;64.59;98818.78;5113128;28;20384;-73
2021/08/14 02:53:02;;;;;;;19.13;12.70;;;;;;;20.95;64.57;98808.00;5094935;28;20027;-74
2021/08/14 02:55:27;;;;;;;18.05;12.32;;;;;;;20.93;64.73;98821.50;5113463;28;20120;-73
2021/08/14 02:57:53;;;;;;;21.67;13.90;;;;;;;20.92;64.47;98815.09;5112589;28;20016;-73
2021/08/14 03:00:18;;;;;;;16.23;12.52;;;;;;;20.91;64.64;98819.06;5095285;28;20024;-73
2021/08/14 03:02:44;;;;;;;17.48;12.18;;;;;;;20.90;64.67;98811.84;5113296;28;20032;-73
2021/08/14 03:05:10;;;;;;;16.67;12.05;;;;;;;20.89;64.74;98809.44;5113281;28;20032;-72
2021/08/14 03:07:35;;;;;;;17.60;12.95;;;;;;;20.87;64.72;98820.13;5113335;28;20043;-72
2021/08/14 03:10:01;;;;;;;17.75;12.68;;;;;;;20.87;64.45;98814.56;5113343;28;20031;-73
2021/08/14 03:12:26;;;;;;;20.10;11.70;;;;;;;20.89;64.62;98815.00;5113148;28;20686;-73
2021/08/14 03:14:52;;;;;;;17.50;10.98;;;;;;;20.90;65.02;98816.63;5113233;28;20476;-74
2021/08/14 03:17:18;;;;;;;16.50;11.63;;;;;;;20.86;64.63;98816.53;5112842;28;20023;-74
2021/08/14 03:19:44;;;;;;;18.45;12.32;;;;;;;20.87;64.45;98820.13;5113242;28;20098;-73
2021/08/14 03:22:10;;;;;;;17.92;12.23;;;;;;;20.86;64.68;98815.72;5112787;28;20403;-73
2021/08/14 03:24:36;;;;;;;18.63;12.25;;;;;;;20.90;64.30;98822.22;5113164;28;21106;-73
2021/08/14 03:27:02;;;;;;;19.05;11.50;;;;;;;20.90;64.56;98823.00;5112780;28;20068;-73
2021/08/14 03:29:27;;;;;;;19.02;11.57;;;;;;;20.83;64.74;98831.16;5113198;28;20468;-74
2021/08/14 03:31:53;;;;;;;14.77;11.25;;;;;;;20.81;64.52;98828.75;5113086;28;20027;-75
2021/08/14 03:34:18;;;;;;;16.85;11.57;;;;;;;20.83;64.76;98828.38;5113146;28;20020;-74
2021/08/14 03:36:44;;;;;;;16.70;10.55;;;;;;;20.86;64.78;98829.66;5112576;28;20024;-73
2021/08/14 03:39:09;;;;;;;15.65;11.48;;;;;;;20.88;64.80;98835.69;5112849;28;20427;-73
2021/08/14 03:41:35;;;;;;;14.18;10.38;;;;;;;20.90;64.82;98839.75;5112371;28;20032;-73
2021/08/14 03:44:01;;;;;;;22.10;11.13;;;;;;;20.92;64.76;98831.81;5112574;28;20107;-73
2021/08/14 03:46:28;;;;;;;16.48;10.90;;;;;;;20.95;64.57;98833.09;5094458;28;20380;-73
2021/08/14 03:48:53;;;;;;;15.10;10.40;;;;;;;20.96;64.62;98834.72;5112843;28;20027;-73
2021/08/14 03:51:19;;;;;;;15.32;10.38;;;;;;;20.97;64.59;98833.56;5094542;28;20396;-73
2021/08/14 03:53:44;;;;;;;13.85;9.80;;;;;;;20.95;64.30;98830.31;5112766;28;20020;-74
2021/08/14 03:56:10;;;;;;;16.05;9.60;;;;;;;20.91;64.43;98835.78;5111541;28;20119;-74
2021/08/14 03:58:35;;;;;;;14.23;10.05;;;;;;;20.87;64.93;98834.06;5112419;28;20032;-74
2021/08/14 04:01:02;;;;;;;13.82;10.00;;;;;;;20.84;64.93;98841.16;5112717;28;20024;-74
2021/08/14 04:03:28;;;;;;;14.35;9.82;;;;;;;20.77;64.76;98841.78;5112460;28;20527;-74
2021/08/14 04:05:53;;;;;;;15.57;10.15;;;;;;;20.71;65.09;98834.81;5112547;28;20057;-74
2021/08/14 04:08:19;;;;;;;14.50;10.30;;;;;;;20.67;65.33;98840.28;5112166;28;20099;-74
2021/08/14 04:10:45;;;;;;;15.30;10.52;;;;;;;20.66;65.09;98841.44;5112520;28;20101;-74
2021/08/14 04:13:10;;;;;;;13.98;9.88;;;;;;;20.70;65.08;98835.97;5094223;28;20070;-74
2021/08/14 04:15:36;;;;;;;14.80;10.27;;;;;;;20.69;65.25;98834.34;5112334;28;20460;-74
2021/08/14 04:18:01;;;;;;;16.10;11.77;;;;;;;20.75;65.22;98834.91;5111903;28;20019;-75
2021/08/14 04:20:26;;;;;;;17.98;11.75;;;;;;;20.78;65.30;98839.81;5112349;28;20020;-74
2021/08/14 04:22:52;;;;;;;15.77;10.65;;;;;;;20.82;65.10;98843.50;5112436;28;20043;-74
2021/08/14 04:25:17;;;;;;;17.95;11.32;;;;;;;20.88;65.11;98847.66;5112504;28;20096;-74
2021/08/14 04:27:43;;;;;;;16.10;10.68;;;;;;;20.89;64.87;98837.31;5093961;28;20035;-73
2021/08/14 04:30:09;;;;;;;16.70;9.90;;;;;;;20.87;65.10;98845.22;5112313;28;20015;-72
2021/08/14 04:32:35;;;;;;;13.85;9.60;;;;;;;20.84;64.83;98845.94;5112017;28;20027;-73
2021/08/14 04:35:13;;;;;;;12.40;9.23;;;;;;;20.80;64.60;98843.84;5112151;28;20093;-73
2021/08/14 04:37:39;;;;;;;13.77;9.73;;;;;;;20.71;65.15;98848.75;5112233;28;20111;-74
2021/08/14 04:40:08;;;;;;;13.38;10.23;;;;;;;20.61;65.24;98852.84;5112219;28;20031;-73
2021/08/14 04:42:34;;;;;;;13.13;9.98;;;;;;;20.52;65.44;98853.00;5112599;28;20073;-74
2021/08/14 04:45:00;;;;;;;14.68;10.20;;;;;;;20.58;65.59;98858.34;5112326;28;20070;-73
2021/08/14 04:47:25;;;;;;;12.75;10.27;;;;;;;20.65;65.51;98859.34;5111691;28;20460;-73
2021/08/14 04:49:51;;;;;;;14.07;10.02;;;;;;;20.66;65.74;98862.91;5112139;28;20031;-73
2021/08/14 04:52:16;;;;;;;14.88;10.30;;;;;;;20.68;65.72;98852.22;5092962;28;20085;-73
2021/08/14 04:54:42;;;;;;;15.57;9.75;;;;;;;20.78;65.99;98867.69;5112280;28;20445;-73
2021/08/14 04:57:07;;;;;;;16.35;10.70;;;;;;;20.81;65.74;98865.00;5111857;28;20117;-73
2021/08/14 04:59:32;;;;;;;13.45;10.02;;;;;;;20.87;65.55;98856.38;5108263;28;20406;-73
2021/08/14 05:01:58;;;;;;;13.35;10.15;;;;;;;20.88;65.57;98858.00;5111082;28;20470;-73
2021/08/14 05:04:23;;;;;;;12.15;9.73;;;;;;;20.95;65.69;98866.56;5111378;28;20020;-72
2021/08/14 05:06:52;;;;;;;14.80;10.57;;;;;;;21.02;65.79;98863.16;5111503;28;20032;-73
2021/08/14 05:09:18;;;;;;;14.00;9.40;;;;;;;21.07;65.29;98862.91;5111769;28;20503;-73
2021/08/14 05:11:43;;;;;;;14.27;10.15;;;;;;;21.14;65.40;98867.84;5111996;28;20062;-73
2021/08/14 05:14:09;;;;;;;11.60;9.20;;;;;;;21.19;65.42;98871.19;5111636;28;20019;-73
2021/08/14 05:16:36;;;;;;;11.15;9.48;;;;;;;21.29;65.56;98871.81;5111433;28;20035;-73
2021/08/14 05:19:04;;;;;;;13.05;10.75;;;;;;;21.34;65.28;98877.13;5107828;28;20016;-72
2021/08/14 05:21:29;;;;;;;12.65;9.50;;;;;;;21.38;65.74;98878.88;5096869;28;20027;-73
2021/08/14 05:23:55;;;;;;;15.00;10.07;;;;;;;21.40;65.10;98882.09;5115497;28;20011;-73
2021/08/14 05:26:21;;;;;;;11.95;9.65;;;;;;;21.46;65.09;98879.84;5115505;28;20035;-73
2021/08/14 05:28:47;;;;;;;13.23;9.18;;;;;;;21.50;65.15;98879.94;5115522;28;21045;-73
2021/08/14 05:31:12;;;;;;;16.70;10.15;;;;;;;21.54;65.02;98883.63;5115144;28;20387;-73
2021/08/14 05:33:37;;;;;;;14.55;10.15;;;;;;;21.60;65.07;98879.41;5115370;28;20019;-74
2021/08/14 05:36:03;;;;;;;12.93;9.50;;;;;;;21.63;65.14;98872.31;5115460;28;20062;-72
2021/08/14 05:38:28;;;;;;;10.73;9.35;;;;;;;21.67;65.06;98873.22;5115211;28;20016;-73
2021/08/14 05:40:54;;;;;;;13.38;9.77;;;;;;;21.71;65.00;98879.69;5115405;28;20015;-73
2021/08/14 05:43:19;;;;;;;12.57;9.65;;;;;;;21.77;64.82;98883.84;5114510;28;20026;-73
2021/08/14 05:45:45;;;;;;;12.55;10.07;;;;;;;21.80;65.01;98879.53;5115266;28;20019;-74
2021/08/14 05:48:11;;;;;;;13.30;9.35;;;;;;;21.85;64.76;98882.00;5115295;28;20020;-73
2021/08/14 05:50:36;;;;;;;13.05;9.93;;;;;;;21.90;64.77;98883.75;5097038;28;20024;-73
2021/08/14 05:53:02;;;;;;;11.23;9.20;;;;;;;21.97;64.72;98881.13;5115044;28;20486;-72
2021/08/14 05:55:27;;;;;;;10.50;9.25;;;;;;;21.99;64.92;98881.56;5114723;28;20103;-74
2021/08/14 05:57:54;;;;;;;17.25;10.52;;;;;;;22.07;64.80;98885.34;5115153;28;20020;-74
2021/08/14 06:00:20;;;;;;;12.43;8.70;;;;;;;22.12;64.86;98885.06;5114776;28;21429;-74
2021/08/14 06:02:47;;;;;;;11.60;8.23;;;;;;;22.16;64.75;98881.16;5114586;28;20772;-74
2021/08/14 06:05:12;;;;;;;12.52;9.48;;;;;;;22.20;64.58;98883.22;5114694;28;20016;-75
2021/08/14 06:07:38;;;;;;;12.20;8.90;;;;;;;22.25;64.48;98886.53;5114785;28;20365;-75
2021/08/14 06:10:08;;;;;;;14.20;8.98;;;;;;;22.31;64.37;98889.88;5114295;28;20084;-75
2021/08/14 06:12:33;;;;;;;12.38;8.88;;;;;;;22.36;64.23;98886.81;5114744;28;20461;-75
2021/08/14 06:14:58;;;;;;;14.32;9.52;;;;;;;22.40;64.29;98895.25;5096455;28;20045;-76
2021/08/14 06:17:24;;;;;;;13.35;8.73;;;;;;;22.47;64.12;98903.00;5114562;28;20022;-75
2021/08/14 06:19:49;;;;;;;10.88;8.77;;;;;;;22.55;64.01;98894.44;5114506;28;20046;-75
2021/08/14 06:22:15;;;;;;;13.88;9.38;;;;;;;22.60;63.97;98891.34;5095876;28;20016;-76
2021/08/14 06:24:41;;;;;;;11.27;8.80;;;;;;;22.65;63.76;98895.00;5114019;28;20388;-76
2021/08/14 06:27:06;;;;;;;13.20;9.63;;;;;;;22.69;63.69;98890.28;5096186;28;20035;-76
2021/08/14 06:29:32;;;;;;;16.42;9.45;;;;;;;22.79;63.77;98897.31;5114394;28;20023;-76
2021/08/14 06:31:57;;;;;;;12.07;8.98;;;;;;;22.87;63.85;98899.03;5114342;28;20031;-76
2021/08/14 06:34:24;;;;;;;11.75;8.40;;;;;;;22.95;64.02;98891.63;5114269;28;20026;-72
2021/08/14 06:36:49;;;;;;;12.93;8.73;;;;;;;22.96;64.18;98890.44;5114175;28;20108;-74
2021/08/14 06:39:15;;;;;;;11.93;8.52;;;;;;;23.01;63.85;98896.53;5095070;28;20118;-73
2021/08/14 06:41:40;;;;;;;14.35;9.52;;;;;;;23.11;63.80;98894.34;5114178;28;20106;-73
2021/08/14 06:44:06;;;;;;;14.55;9.93;;;;;;;23.16;63.92;98899.63;5113691;28;20027;-73
2021/08/14 06:46:31;;;;;;;13.77;9.63;;;;;;;23.20;63.94;98906.91;5113960;28;20361;-73
2021/08/14 06:48:57;;;;;;;34.35;13.18;;;;;;;23.30;63.95;98896.31;5113905;28;20458;-74
2021/08/14 06:51:22;;;;;;;19.58;10.07;;;;;;;23.38;63.79;98900.03;5095525;28;20026;-73
2021/08/14 06:53:48;;;;;;;15.60;9.98;;;;;;;23.47;63.90;98901.41;5113489;28;20368;-74
2021/08/14 06:56:14;;;;;;;11.95;8.63;;;;;;;23.57;63.91;98905.59;5113742;28;20051;-74
2021/08/14 06:58:39;;;;;;;11.73;9.43;;;;;;;23.65;63.89;98903.72;5113643;28;20027;-74
2021/08/14 07:01:05;;;;;;;16.20;10.10;;;;;;;23.74;63.82;98918.28;5113474;28;20035;-74
2021/08/14 07:03:30;;;;;;;15.25;9.40;;;;;;;23.84;63.77;98907.66;5113784;28;20028;-73
2021/08/14 07:05:56;;;;;;;12.25;9.13;;;;;;;23.92;63.71;98910.19;5113479;28;20435;-73
2021/08/14 07:08:21;;;;;;;13.07;9.48;;;;;;;24.00;63.52;98916.72;5113545;28;20023;-75
2021/08/14 07:10:47;;;;;;;12.60;9.40;;;;;;;24.02;63.38;98908.75;5113082;28;20058;-72
2021/08/14 07:13:13;;;;;;;12.60;9.15;;;;;;;24.05;63.02;98910.00;5113595;28;20024;-71
2021/08/14 07:15:39;;;;;;;12.45;9.05;;;;;;;24.10;62.93;98918.06;5113424;28;20028;-71
2021/08/14 07:18:04;;;;;;;13.75;9.68;;;;;;;24.12;63.10;98910.09;5114373;27;20061;-71
2021/08/14 07:20:29;;;;;;;12.25;9.07;;;;;;;24.18;63.21;98911.41;5113093;28;20503;-70
2021/08/14 07:22:55;;;;;;;12.75;8.55;;;;;;;24.22;62.87;98917.06;5113196;28;20023;-68
2021/08/14 07:25:21;;;;;;;12.90;8.35;;;;;;;24.25;62.12;98915.50;5112851;28;20051;-69
2021/08/14 07:27:46;;;;;;;11.77;9.05;;;;;;;24.29;61.95;98908.75;5098266;28;20028;-68
2021/08/14 07:30:12;;;;;;;10.10;8.55;;;;;;;24.35;62.00;98906.44;5108333;28;20045;-69
2021/08/14 07:32:38;;;;;;;13.77;9.05;;;;;;;24.41;61.65;98912.53;5096662;28;20028;-68
2021/08/14 07:35:04;;;;;;;12.23;7.90;;;;;;;24.47;61.61;98911.81;5110728;28;20030;-69
2021/08/14 07:37:29;;;;;;;11.00;8.30;;;;;;;24.50;61.07;98918.66;5097032;28;20387;-70
2021/08/14 07:39:55;;;;;;;10.60;8.35;;;;;;;24.52;60.19;98905.88;5112547;28;20034;-69
2021/08/14 07:42:20;;;;;;;9.25;7.43;;;;;;;24.51;60.38;98904.25;5108828;28;20040;-70
2021/08/14 07:44:46;;;;;;;15.23;9.23;;;;;;;24.55;59.30;98918.34;5113153;28;20038;-71
2021/08/14 07:47:11;;;;;;;11.15;7.95;;;;;;;24.57;59.74;98912.34;5112780;28;20057;-72
2021/08/14 07:49:37;;;;;;;10.77;8.15;;;;;;;24.61;59.99;98914.03;5112956;28;20050;-72
2021/08/14 07:52:02;;;;;;;11.40;7.82;;;;;;;24.67;59.71;98920.88;5111114;28;20041;-73
2021/08/14 07:54:28;;;;;;;9.40;8.13;;;;;;;24.74;59.76;98919.41;5092855;28;20034;-71
2021/08/14 07:56:56;;;;;;;11.10;8.82;;;;;;;24.81;59.31;98925.94;5111292;28;20043;-71
2021/08/14 07:59:22;;;;;;;10.40;8.77;;;;;;;24.84;59.26;98918.72;5093490;28;20058;-71
2021/08/14 08:01:47;;;;;;;8.93;8.00;;;;;;;24.91;59.60;98920.81;5111266;28;20055;-72
2021/08/14 08:04:12;;;;;;;13.27;8.45;;;;;;;24.95;59.52;98924.47;5093347;28;20019;-70
2021/08/14 08:06:38;;;;;;;11.52;8.18;;;;;;;25.05;59.38;98920.19;5112031;28;20373;-71
2021/08/14 08:09:03;;;;;;;8.88;6.63;;;;;;;25.12;58.93;98917.44;5113359;28;20474;-72
2021/08/14 08:11:29;;;;;;;12.90;8.32;;;;;;;25.14;58.73;98923.47;5113533;28;20020;-71
2021/08/14 08:13:54;;;;;;;14.25;8.75;;;;;;;25.21;58.47;98920.75;5094887;28;20407;-71
2021/08/14 08:16:19;;;;;;;11.40;8.40;;;;;;;25.27;58.06;98924.03;5096535;28;20127;-70
2021/08/14 08:18:45;;;;;;;11.68;8.02;;;;;;;25.36;58.22;98926.53;5106342;28;20028;-71
2021/08/14 08:21:10;;;;;;;11.30;8.35;;;;;;;25.45;58.41;98934.69;5113135;28;20019;-69
2021/08/14 08:23:36;;;;;;;10.45;7.82;;;;;;;25.53;58.23;98920.31;5112301;28;20054;-70
2021/08/14 08:26:01;;;;;;;10.55;8.32;;;;;;;25.63;58.38;98935.66;5112254;28;20056;-70
2021/08/14 08:28:27;;;;;;;10.27;8.55;;;;;;;25.73;58.38;98934.16;5112060;28;20065;-70
2021/08/14 08:30:52;;;;;;;11.18;8.35;;;;;;;25.82;57.96;98934.63;5112125;28;20399;-70
2021/08/14 08:33:17;;;;;;;9.32;6.78;;;;;;;25.82;57.76;98931.84;5093183;28;20059;-70
2021/08/14 08:35:43;;;;;;;10.52;8.20;;;;;;;25.81;57.98;98933.03;5112658;28;20028;-70
2021/08/14 08:38:09;;;;;;;11.55;7.07;;;;;;;25.84;57.65;98923.81;5111603;28;20020;-73
2021/08/14 08:40:40;;;;;;;10.63;8.68;;;;;;;25.83;57.43;98916.59;5093766;28;20039;-71
2021/08/14 08:43:06;;;;;;;12.10;8.55;;;;;;;25.83;57.28;98916.59;5110695;28;20023;-71
2021/08/14 08:45:32;;;;;;;12.05;8.55;;;;;;;25.88;57.42;98923.03;5112052;28;20031;-72
2021/08/14 08:47:58;;;;;;;10.63;8.35;;;;;;;25.84;56.68;98912.59;5112153;28;20020;-72
2021/08/14 08:50:27;;;;;;;14.25;9.82;;;;;;;25.83;57.22;98916.59;5094317;28;20024;-71
2021/08/14 08:52:53;;;;;;;10.55;7.95;;;;;;;25.88;57.72;98920.22;5106440;28;20020;-70
2021/08/14 08:55:22;;;;;;;9.88;8.63;;;;;;;25.94;57.81;98910.22;5094688;28;20054;-70
2021/08/14 08:57:47;;;;;;;12.80;9.55;;;;;;;25.99;57.77;98912.69;5109245;27;20043;-70
2021/08/14 09:00:16;;;;;;;11.43;9.23;;;;;;;26.00;57.55;98912.31;5135414;27;20030;-69
2021/08/14 09:02:43;;;;;;;10.95;9.13;;;;;;;26.03;57.90;98909.91;5120236;27;20065;-77
2021/08/14 09:05:21;;;;;;;11.30;8.75;;;;;;;26.11;57.76;98918.00;5114084;28;20569;-76
2021/08/14 09:07:50;;;;;;;12.00;9.18;;;;;;;26.14;57.08;98917.25;5115825;28;20031;-76
2021/08/14 09:10:16;;;;;;;;;;;;;;;26.20;57.26;98914.88;5109104;28;20031;-77
2021/08/14 09:12:43;;;;;;;10.57;8.88;;;;;;;26.21;57.17;98912.88;5112037;27;20294;-77
2021/08/14 09:15:16;;;;;;;8.48;6.95;;;;;;;26.28;56.98;98910.13;5095691;28;20027;-76
2021/08/14 09:17:43;;;;;;;12.85;9.25;;;;;;;26.31;57.16;98906.50;5108344;27;20384;-73
2021/08/14 09:20:18;;;;;;;10.90;7.93;;;;;;;26.37;57.01;98909.75;5123113;27;20046;-77
2021/08/14 09:23:05;;;;;;;11.30;7.72;;;;;;;26.36;56.10;98908.94;5115144;28;20483;-76
2021/08/14 09:25:42;;;;;;;9.82;8.20;;;;;;;26.35;55.74;98906.53;5111923;28;20105;-73
2021/08/14 09:28:09;;;;;;;12.57;9.13;;;;;;;26.31;55.83;98906.50;5114715;28;20459;-76
2021/08/14 09:30:47;;;;;;;11.40;8.07;;;;;;;26.37;56.35;98904.94;5114286;28;20431;-80
2021/08/14 09:33:15;;;;;;;9.20;7.15;;;;;;;26.41;55.67;98899.34;5085800;28;20028;-79
2021/08/14 09:35:42;;;;;;;10.90;9.80;;;;;;;26.44;55.69;98895.75;5110117;28;20038;-79
2021/08/14 09:38:10;;;;;;;10.25;7.82;;;;;;;26.50;55.00;98905.41;5088198;28;20111;-75
2021/08/14 09:40:45;;;;;;;12.07;7.50;;;;;;;26.52;55.11;98897.38;5103708;28;20051;-79
2021/08/14 09:43:31;;;;;;;10.82;7.97;;;;;;;26.57;54.83;98899.81;5096630;28;20437;-80
2021/08/14 09:45:56;;;;;;;8.93;6.85;;;;;;;26.63;54.58;98896.63;5114666;28;20040;-81
2021/08/14 09:48:24;;;;;;;10.82;8.18;;;;;;;26.68;54.55;98899.06;5125278;27;20486;-79
2021/08/14 09:50:50;;;;;;;9.35;8.07;;;;;;;26.77;54.06;98904.31;5112357;28;20039;-80
2021/08/14 09:53:19;;;;;;;13.07;8.93;;;;;;;26.81;53.25;98902.34;5114930;27;20032;-79
2021/08/14 09:55:47;;;;;;;8.43;7.53;;;;;;;26.85;52.55;98903.19;5096772;28;20151;-79
2021/08/14 09:58:17;;;;;;;10.13;8.48;;;;;;;26.86;53.29;98902.81;5104553;28;20036;-78
2021/08/14 10:00:49;;;;;;;10.30;7.97;;;;;;;26.95;52.99;98907.22;5102613;28;20019;-75
2021/08/14 10:03:16;;;;;;;12.05;7.88;;;;;;;26.97;51.90;98908.47;5115256;28;20023;-74
2021/08/14 10:05:42;;;;;;;10.15;7.88;;;;;;;26.98;51.64;98896.00;5111083;28;20120;-74
2021/08/14 10:08:08;;;;;;;9.60;7.32;;;;;;;27.03;51.16;98897.63;5110607;28;20046;-75
2021/08/14 10:10:33;;;;;;;11.77;8.15;;;;;;;27.08;51.90;98900.06;5115088;28;20519;-74
2021/08/14 10:13:02;;;;;;;9.85;7.38;;;;;;;27.11;51.69;98890.00;5113173;28;20047;-75
2021/08/14 10:15:28;;;;;;;10.77;7.85;;;;;;;27.15;51.95;98894.44;5113840;28;20019;-74
2021/08/14 10:17:55;;;;;;;9.80;7.93;;;;;;;27.21;51.46;98889.22;5107273;28;20020;-75
2021/08/14 10:20:22;;;;;;;9.88;7.55;;;;;;;27.26;50.92;98893.66;5106198;28;20028;-70
2021/08/14 10:22:59;;;;;;;12.68;8.52;;;;;;;27.31;51.80;98890.44;5107959;27;20507;-72
2021/08/14 10:25:26;;;;;;;9.40;8.40;;;;;;;27.37;51.40;98883.22;5094408;28;20031;-71
2021/08/14 10:27:56;;;;;;;10.07;8.48;;;;;;;27.41;51.54;98880.41;5091299;28;20384;-71
2021/08/14 10:30:37;;;;;;;11.75;8.90;;;;;;;27.46;51.34;98880.81;5101130;27;20034;-72
2021/08/14 10:33:03;;;;;;;9.95;7.85;;;;;;;27.46;51.54;98865.94;5113449;28;20084;-73
2021/08/14 10:35:28;;;;;;;9.88;7.82;;;;;;;27.51;51.69;98874.00;5119758;27;20023;-74
2021/08/14 10:37:54;;;;;;;11.95;8.40;;;;;;;27.57;51.59;98869.56;5113084;27;20092;-70
2021/08/14 10:40:20;;;;;;;10.20;8.25;;;;;;;27.63;51.88;98864.38;5114321;28;20032;-70
2021/08/14 10:42:54;;;;;;;9.57;8.57;;;;;;;27.70;51.95;98858.75;5114477;28;20035;-70
2021/08/14 10:45:21;;;;;;;13.02;8.73;;;;;;;27.78;51.58;98862.34;5114546;28;20027;-70
2021/08/14 10:47:49;;;;;;;9.50;6.63;;;;;;;27.78;49.26;98848.25;5114209;28;20059;-70
2021/08/14 10:50:30;;;;;;;10.95;8.63;;;;;;;27.84;49.81;98848.66;5096112;28;20464;-70
2021/08/14 10:53:11;;;;;;;9.45;8.10;;;;;;;27.89;50.29;98846.25;5114388;28;20027;-70
2021/08/14 10:55:56;;;;;;;13.05;10.15;;;;;;;27.85;50.24;98847.44;5114218;28;20472;-69
2021/08/14 10:58:30;;;;;;;11.20;8.90;;;;;;;27.84;50.54;98838.19;5113467;28;20480;-69
2021/08/14 11:01:19;;;;;;;12.13;8.85;;;;;;;27.96;50.94;98836.97;5113980;28;20058;-69
2021/08/14 11:03:44;;;;;;;10.07;8.70;;;;;;;28.04;51.33;98841.38;5100000;28;20065;-69
2021/08/14 11:06:36;;;;;;;10.13;8.02;;;;;;;28.16;51.23;98834.53;5113468;28;20027;-69
2021/08/14 11:09:17;;;;;;;10.15;8.32;;;;;;;28.24;50.54;98835.31;5113397;27;20036;-69
2021/08/14 11:11:49;;;;;;;11.55;8.95;;;;;;;28.27;50.57;98837.31;5113638;28;20131;-69
2021/08/14 11:14:15;;;;;;;7.00;6.10;;;;;;;28.31;50.03;98837.31;5113499;28;20081;-69
2021/08/14 11:17:02;;;;;;;9.68;7.80;;;;;;;28.34;49.78;98828.00;5113310;28;20016;-69
2021/08/14 11:19:41;;;;;;;10.02;7.97;;;;;;;28.37;49.96;98825.19;5112798;28;20047;-68
2021/08/14 11:22:33;;;;;;;11.63;8.93;;;;;;;28.46;49.88;98824.75;5112890;28;20098;-69